sensor_id;sensor_type;location;lat;lon;timestamp;pressure;altitude;pressure_sealevel;temperature;humidity
25947;BME280;13745;51.470;9.894;2022-11-20T00:02:06;99092.03;;;-1.88;53.33
25947;BME280;13745;51.470;9.894;2022-11-20T00:04:52;99092.44;;;-1.91;53.51
25947;BME280;13745;51.470;9.894;2022-11-20T00:07:37;99083.91;;;-1.93;53.64
25947;BME280;13745;51.470;9.894;2022-11-20T00:10:23;99084.72;;;-1.92;53.51
25947;BME280;13745;51.470;9.894;2022-11-20T00:13:10;99081.94;;;-1.97;53.49
25947;BME280;13745;51.470;9.894;2022-11-20T00:15:57;99085.97;;;-1.95;53.51
25947;BME280;13745;51.470;9.894;2022-11-20T00:18:44;99075.81;;;-1.98;53.73
25947;BME280;13745;51.470;9.894;2022-11-20T00:21:30;99076.63;;;-1.97;53.79
25947;BME280;13745;51.470;9.894;2022-11-20T00:24:16;99074.22;;;-1.99;53.68
25947;BME280;13745;51.470;9.894;2022-11-20T00:27:01;99076.06;;;-1.99;53.50
25947;BME280;13745;51.470;9.894;2022-11-20T00:29:47;99078.72;;;-1.99;53.57
25947;BME280;13745;51.470;9.894;2022-11-20T00:32:33;99071.34;;;-1.97;53.57
25947;BME280;13745;51.470;9.894;2022-11-20T00:35:20;99073.97;;;-1.97;53.81
25947;BME280;13745;51.470;9.894;2022-11-20T00:38:06;99066.03;;;-1.97;53.75
25947;BME280;13745;51.470;9.894;2022-11-20T00:40:55;99072.94;;;-1.96;53.58
25947;BME280;13745;51.470;9.894;2022-11-20T00:43:41;99085.16;;;-1.95;53.53
25947;BME280;13745;51.470;9.894;2022-11-20T00:46:27;99084.72;;;-1.92;53.46
25947;BME280;13745;51.470;9.894;2022-11-20T00:49:14;99078.38;;;-1.91;53.81
25947;BME280;13745;51.470;9.894;2022-11-20T00:52:01;99070.44;;;-1.91;53.57
25947;BME280;13745;51.470;9.894;2022-11-20T00:54:47;99073.88;;;-1.91;54.00
25947;BME280;13745;51.470;9.894;2022-11-20T00:57:33;99076.53;;;-1.91;53.66
25947;BME280;13745;51.470;9.894;2022-11-20T01:00:18;99077.56;;;-1.92;53.91
25947;BME280;13745;51.470;9.894;2022-11-20T01:03:04;99075.72;;;-1.91;53.80
25947;BME280;13745;51.470;9.894;2022-11-20T01:05:50;99073.31;;;-1.93;53.82
25947;BME280;13745;51.470;9.894;2022-11-20T01:08:38;99068.00;;;-1.93;53.86
25947;BME280;13745;51.470;9.894;2022-11-20T01:11:25;99070.06;;;-1.95;53.85
25947;BME280;13745;51.470;9.894;2022-11-20T01:14:13;99067.06;;;-1.98;54.09
25947;BME280;13745;51.470;9.894;2022-11-20T01:16:59;99060.00;;;-2.04;53.80
25947;BME280;13745;51.470;9.894;2022-11-20T01:19:48;99049.25;;;-2.09;53.89
25947;BME280;13745;51.470;9.894;2022-11-20T01:22:34;99053.19;;;-2.11;54.22
25947;BME280;13745;51.470;9.894;2022-11-20T01:25:21;99057.66;;;-2.12;54.29
25947;BME280;13745;51.470;9.894;2022-11-20T01:28:06;99059.28;;;-2.11;53.85
25947;BME280;13745;51.470;9.894;2022-11-20T01:30:52;99047.66;;;-2.10;53.85
25947;BME280;13745;51.470;9.894;2022-11-20T01:33:38;99041.31;;;-2.09;54.28
25947;BME280;13745;51.470;9.894;2022-11-20T01:36:26;99038.88;;;-2.10;53.99
25947;BME280;13745;51.470;9.894;2022-11-20T01:39:14;99029.56;;;-2.13;53.86
25947;BME280;13745;51.470;9.894;2022-11-20T01:42:02;99028.34;;;-2.17;54.03
25947;BME280;13745;51.470;9.894;2022-11-20T01:48:28;99026.63;;;-2.23;54.04
25947;BME280;13745;51.470;9.894;2022-11-20T01:51:20;99028.06;;;-2.26;53.88
25947;BME280;13745;51.470;9.894;2022-11-20T01:54:11;99026.91;;;-2.30;54.19
25947;BME280;13745;51.470;9.894;2022-11-20T01:56:59;99028.41;;;-2.34;54.15
25947;BME280;13745;51.470;9.894;2022-11-20T01:59:51;99022.50;;;-2.36;53.90
25947;BME280;13745;51.470;9.894;2022-11-20T02:02:42;99027.81;;;-2.36;53.95
25947;BME280;13745;51.470;9.894;2022-11-20T02:05:31;99023.53;;;-2.37;53.68
25947;BME280;13745;51.470;9.894;2022-11-20T02:08:19;99027.66;;;-2.41;54.06
25947;BME280;13745;51.470;9.894;2022-11-20T02:11:05;99026.47;;;-2.45;54.04
25947;BME280;13745;51.470;9.894;2022-11-20T02:13:51;99026.25;;;-2.44;53.85
25947;BME280;13745;51.470;9.894;2022-11-20T02:16:42;99021.63;;;-2.48;53.91
25947;BME280;13745;51.470;9.894;2022-11-20T02:19:30;99027.66;;;-2.59;53.89
25947;BME280;13745;51.470;9.894;2022-11-20T02:22:19;99020.59;;;-2.65;54.25
25947;BME280;13745;51.470;9.894;2022-11-20T02:25:10;99016.06;;;-2.75;54.42
25947;BME280;13745;51.470;9.894;2022-11-20T02:27:55;99021.03;;;-2.85;54.35
25947;BME280;13745;51.470;9.894;2022-11-20T02:30:41;99028.31;;;-2.81;54.21
25947;BME280;13745;51.470;9.894;2022-11-20T02:33:27;99017.88;;;-2.76;54.30
25947;BME280;13745;51.470;9.894;2022-11-20T02:36:15;99023.78;;;-2.74;54.07
25947;BME280;13745;51.470;9.894;2022-11-20T02:39:01;99017.28;;;-2.78;54.48
25947;BME280;13745;51.470;9.894;2022-11-20T02:41:49;99017.00;;;-2.88;54.44
25947;BME280;13745;51.470;9.894;2022-11-20T02:44:34;99033.47;;;-2.86;54.18
25947;BME280;13745;51.470;9.894;2022-11-20T02:47:20;99027.72;;;-2.83;54.57
25947;BME280;13745;51.470;9.894;2022-11-20T02:50:06;99021.41;;;-2.82;54.33
25947;BME280;13745;51.470;9.894;2022-11-20T02:52:52;99018.53;;;-2.80;54.36
25947;BME280;13745;51.470;9.894;2022-11-20T02:55:38;99018.31;;;-2.79;54.38
25947;BME280;13745;51.470;9.894;2022-11-20T02:58:25;99016.47;;;-2.78;54.53
25947;BME280;13745;51.470;9.894;2022-11-20T03:01:11;99017.50;;;-2.79;54.17
25947;BME280;13745;51.470;9.894;2022-11-20T03:03:57;99014.84;;;-2.79;54.43
25947;BME280;13745;51.470;9.894;2022-11-20T03:06:43;99011.19;;;-2.78;54.38
25947;BME280;13745;51.470;9.894;2022-11-20T03:09:29;99009.56;;;-2.79;54.41
25947;BME280;13745;51.470;9.894;2022-11-20T03:12:15;99007.16;;;-2.81;54.31
25947;BME280;13745;51.470;9.894;2022-11-20T03:15:02;98995.28;;;-2.78;54.56
25947;BME280;13745;51.470;9.894;2022-11-20T03:17:48;99002.22;;;-2.77;54.18
25947;BME280;13745;51.470;9.894;2022-11-20T03:20:34;99005.88;;;-2.78;54.59
25947;BME280;13745;51.470;9.894;2022-11-20T03:23:19;99010.38;;;-2.79;54.54
25947;BME280;13745;51.470;9.894;2022-11-20T03:26:11;99017.88;;;-2.76;54.55
25947;BME280;13745;51.470;9.894;2022-11-20T03:28:59;99018.09;;;-2.77;54.25
25947;BME280;13745;51.470;9.894;2022-11-20T03:31:46;99015.88;;;-2.80;54.63
25947;BME280;13745;51.470;9.894;2022-11-20T03:34:32;99016.91;;;-2.81;54.46
25947;BME280;13745;51.470;9.894;2022-11-20T03:37:18;98998.66;;;-2.89;54.38
25947;BME280;13745;51.470;9.894;2022-11-20T03:40:05;98993.69;;;-2.97;54.91
25947;BME280;13745;51.470;9.894;2022-11-20T03:42:51;98990.28;;;-3.04;54.81
25947;BME280;13745;51.470;9.894;2022-11-20T03:45:36;98984.69;;;-3.13;54.73
25947;BME280;13745;51.470;9.894;2022-11-20T03:48:24;98989.13;;;-3.08;54.63
25947;BME280;13745;51.470;9.894;2022-11-20T03:51:12;98982.56;;;-3.05;54.43
25947;BME280;13745;51.470;9.894;2022-11-20T03:53:59;98973.81;;;-3.06;54.82
25947;BME280;13745;51.470;9.894;2022-11-20T03:56:45;98971.19;;;-3.06;54.58
25947;BME280;13745;51.470;9.894;2022-11-20T03:59:31;98970.59;;;-3.08;54.93
25947;BME280;13745;51.470;9.894;2022-11-20T04:02:17;98960.59;;;-3.06;54.85
25947;BME280;13745;51.470;9.894;2022-11-20T04:05:04;98956.91;;;-3.05;55.12
25947;BME280;13745;51.470;9.894;2022-11-20T04:07:50;98956.91;;;-3.05;54.70
25947;BME280;13745;51.470;9.894;2022-11-20T04:10:36;98968.31;;;-3.04;54.71
25947;BME280;13745;51.470;9.894;2022-11-20T04:13:22;98956.91;;;-3.05;55.10
25947;BME280;13745;51.470;9.894;2022-11-20T04:16:09;98964.22;;;-3.00;54.72
25947;BME280;13745;51.470;9.894;2022-11-20T04:18:55;98969.28;;;-2.99;55.35
25947;BME280;13745;51.470;9.894;2022-11-20T04:21:43;98981.31;;;-3.03;54.83
25947;BME280;13745;51.470;9.894;2022-11-20T04:24:29;98974.41;;;-3.04;54.97
25947;BME280;13745;51.470;9.894;2022-11-20T04:27:15;98970.72;;;-3.03;55.00
25947;BME280;13745;51.470;9.894;2022-11-20T04:30:00;98961.63;;;-3.07;55.26
25947;BME280;13745;51.470;9.894;2022-11-20T04:32:46;98970.59;;;-3.08;55.27
25947;BME280;13745;51.470;9.894;2022-11-20T04:35:33;98974.03;;;-3.07;55.06
25947;BME280;13745;51.470;9.894;2022-11-20T04:38:20;98969.56;;;-3.07;55.08
25947;BME280;13745;51.470;9.894;2022-11-20T04:41:08;98962.22;;;-3.05;54.86
25947;BME280;13745;51.470;9.894;2022-11-20T04:43:58;98962.66;;;-3.08;55.13
25947;BME280;13745;51.470;9.894;2022-11-20T04:46:47;98966.91;;;-3.07;55.03
25947;BME280;13745;51.470;9.894;2022-11-20T04:49:32;98962.06;;;-3.10;55.38
25947;BME280;13745;51.470;9.894;2022-11-20T04:52:18;98969.66;;;-3.13;55.60
25947;BME280;13745;51.470;9.894;2022-11-20T04:55:06;98974.53;;;-3.16;55.69
25947;BME280;13745;51.470;9.894;2022-11-20T04:57:52;98972.94;;;-3.17;55.58
25947;BME280;13745;51.470;9.894;2022-11-20T05:00:38;98981.91;;;-3.18;55.70
25947;BME280;13745;51.470;9.894;2022-11-20T05:03:23;98985.13;;;-3.16;55.75
25947;BME280;13745;51.470;9.894;2022-11-20T05:06:10;98985.72;;;-3.14;55.56
25947;BME280;13745;51.470;9.894;2022-11-20T05:08:56;98979.38;;;-3.13;55.44
25947;BME280;13745;51.470;9.894;2022-11-20T05:11:43;98983.06;;;-3.14;55.26
25947;BME280;13745;51.470;9.894;2022-11-20T05:14:28;98977.78;;;-3.14;55.64
25947;BME280;13745;51.470;9.894;2022-11-20T05:17:14;98975.00;;;-3.19;55.74
25947;BME280;13745;51.470;9.894;2022-11-20T05:20:00;98981.09;;;-3.19;55.70
25947;BME280;13745;51.470;9.894;2022-11-20T05:22:46;98981.91;;;-3.18;55.70
25947;BME280;13745;51.470;9.894;2022-11-20T05:25:32;98967.84;;;-3.19;55.79
25947;BME280;13745;51.470;9.894;2022-11-20T05:28:19;98962.19;;;-3.22;55.38
25947;BME280;13745;51.470;9.894;2022-11-20T05:31:06;98956.91;;;-3.22;55.88
25947;BME280;13745;51.470;9.894;2022-11-20T05:33:52;98952.66;;;-3.23;55.32
25947;BME280;13745;51.470;9.894;2022-11-20T05:36:38;98957.50;;;-3.20;55.80
25947;BME280;13745;51.470;9.894;2022-11-20T05:39:24;98960.50;;;-3.17;55.64
25947;BME280;13745;51.470;9.894;2022-11-20T05:42:09;98951.75;;;-3.17;55.41
25947;BME280;13745;51.470;9.894;2022-11-20T05:45:14;98956.19;;;-3.12;54.98
25947;BME280;13745;51.470;9.894;2022-11-20T05:48:00;98959.56;;;-3.05;55.50
25947;BME280;13745;51.470;9.894;2022-11-20T05:50:46;98962.16;;;-2.98;55.22
25947;BME280;13745;51.470;9.894;2022-11-20T05:53:33;98963.69;;;-2.91;55.01
25947;BME280;13745;51.470;9.894;2022-11-20T05:56:20;98965.00;;;-2.82;55.16
25947;BME280;13745;51.470;9.894;2022-11-20T05:59:06;98958.63;;;-2.75;54.99
25947;BME280;13745;51.470;9.894;2022-11-20T06:01:53;98962.00;;;-2.68;54.89
25947;BME280;13745;51.470;9.894;2022-11-20T06:04:39;98961.91;;;-2.62;54.78
25947;BME280;13745;51.470;9.894;2022-11-20T06:07:25;98961.00;;;-2.56;54.78
25947;BME280;13745;51.470;9.894;2022-11-20T06:10:11;98961.97;;;-2.50;54.80
25947;BME280;13745;51.470;9.894;2022-11-20T06:12:57;98957.63;;;-2.45;54.88
25947;BME280;13745;51.470;9.894;2022-11-20T06:15:48;98960.16;;;-2.39;54.81
25947;BME280;13745;51.470;9.894;2022-11-20T06:18:35;98956.88;;;-2.34;54.78
25947;BME280;13745;51.470;9.894;2022-11-20T06:21:23;98958.38;;;-2.27;54.93
25947;BME280;13745;51.470;9.894;2022-11-20T06:24:09;98958.53;;;-2.22;54.91
25947;BME280;13745;51.470;9.894;2022-11-20T06:26:55;98956.22;;;-2.19;54.93
25947;BME280;13745;51.470;9.894;2022-11-20T06:29:41;98951.66;;;-2.12;54.94
25947;BME280;13745;51.470;9.894;2022-11-20T06:32:26;98951.56;;;-2.05;54.80
25947;BME280;13745;51.470;9.894;2022-11-20T06:35:14;98945.13;;;-1.98;54.89
25947;BME280;13745;51.470;9.894;2022-11-20T06:37:59;98954.59;;;-1.91;54.91
25947;BME280;13745;51.470;9.894;2022-11-20T06:40:45;98954.50;;;-1.84;54.98
25947;BME280;13745;51.470;9.894;2022-11-20T06:43:31;98949.88;;;-1.78;55.10
25947;BME280;13745;51.470;9.894;2022-11-20T06:46:18;98955.19;;;-1.78;55.22
25947;BME280;13745;51.470;9.894;2022-11-20T06:49:04;98950.34;;;-1.80;55.25
25947;BME280;13745;51.470;9.894;2022-11-20T06:51:51;98952.66;;;-1.84;55.28
25947;BME280;13745;51.470;9.894;2022-11-20T06:54:37;98955.38;;;-1.90;55.26
25947;BME280;13745;51.470;9.894;2022-11-20T06:57:23;98948.00;;;-1.88;55.44
25947;BME280;13745;51.470;9.894;2022-11-20T07:00:10;98945.97;;;-1.86;55.70
25947;BME280;13745;51.470;9.894;2022-11-20T07:02:56;98948.72;;;-1.81;55.57
25947;BME280;13745;51.470;9.894;2022-11-20T07:05:42;98951.97;;;-1.79;55.83
25947;BME280;13745;51.470;9.894;2022-11-20T07:08:29;98949.66;;;-1.76;55.61
25947;BME280;13745;51.470;9.894;2022-11-20T07:11:15;98951.41;;;-1.70;55.69
25947;BME280;13745;51.470;9.894;2022-11-20T07:14:01;98943.69;;;-1.72;55.53
25947;BME280;13745;51.470;9.894;2022-11-20T07:16:46;98946.19;;;-1.77;55.97
25947;BME280;13745;51.470;9.894;2022-11-20T07:19:32;98944.94;;;-1.74;55.83
25947;BME280;13745;51.470;9.894;2022-11-20T07:22:18;98945.28;;;-1.71;56.08
25947;BME280;13745;51.470;9.894;2022-11-20T07:25:08;98940.56;;;-1.69;55.38
25947;BME280;13745;51.470;9.894;2022-11-20T07:27:56;98939.06;;;-1.65;55.99
25947;BME280;13745;51.470;9.894;2022-11-20T07:30:42;98949.59;;;-1.58;55.82
25947;BME280;13745;51.470;9.894;2022-11-20T07:33:34;98950.06;;;-1.50;55.69
25947;BME280;13745;51.470;9.894;2022-11-20T07:36:20;98943.59;;;-1.43;55.82
25947;BME280;13745;51.470;9.894;2022-11-20T07:39:06;98946.25;;;-1.32;55.86
25947;BME280;13745;51.470;9.894;2022-11-20T07:41:53;98944.31;;;-1.25;55.48
25947;BME280;13745;51.470;9.894;2022-11-20T07:44:38;98942.78;;;-1.21;55.72
25947;BME280;13745;51.470;9.894;2022-11-20T07:47:25;98954.09;;;-1.14;56.17
25947;BME280;13745;51.470;9.894;2022-11-20T07:50:11;98959.97;;;-1.01;55.66
25947;BME280;13745;51.470;9.894;2022-11-20T07:53:01;98954.53;;;-0.94;55.63
25947;BME280;13745;51.470;9.894;2022-11-20T07:55:48;98961.13;;;-0.86;55.56
25947;BME280;13745;51.470;9.894;2022-11-20T07:58:36;98960.97;;;-0.68;55.44
25947;BME280;13745;51.470;9.894;2022-11-20T08:01:21;98959.09;;;-0.56;55.73
25947;BME280;13745;51.470;9.894;2022-11-20T08:04:07;98957.69;;;-0.47;55.68
25947;BME280;13745;51.470;9.894;2022-11-20T08:06:53;98957.41;;;-0.35;55.88
25947;BME280;13745;51.470;9.894;2022-11-20T08:09:39;98960.28;;;-0.25;55.35
25947;BME280;13745;51.470;9.894;2022-11-20T08:12:25;98964.72;;;-0.14;55.22
25947;BME280;13745;51.470;9.894;2022-11-20T08:15:29;98963.16;;;0.01;55.21
25947;BME280;13745;51.470;9.894;2022-11-20T08:18:15;98966.72;;;0.06;55.39
25947;BME280;13745;51.470;9.894;2022-11-20T08:21:02;98976.38;;;0.12;55.46
25947;BME280;13745;51.470;9.894;2022-11-20T08:23:47;98979.94;;;0.18;55.09
25947;BME280;13745;51.470;9.894;2022-11-20T08:26:33;98986.50;;;0.26;55.28
25947;BME280;13745;51.470;9.894;2022-11-20T08:29:19;98979.16;;;0.33;55.02
25947;BME280;13745;51.470;9.894;2022-11-20T08:32:06;98986.91;;;0.35;55.67
25947;BME280;13745;51.470;9.894;2022-11-20T08:34:52;98980.63;;;0.41;55.37
25947;BME280;13745;51.470;9.894;2022-11-20T08:37:38;98986.91;;;0.35;55.33
25947;BME280;13745;51.470;9.894;2022-11-20T08:40:25;98983.88;;;0.43;55.58
25947;BME280;13745;51.470;9.894;2022-11-20T08:43:11;98982.75;;;0.55;55.46
25947;BME280;13745;51.470;9.894;2022-11-20T08:45:57;98981.38;;;0.85;55.14
25947;BME280;13745;51.470;9.894;2022-11-20T08:48:45;98978.03;;;1.10;54.66
25947;BME280;13745;51.470;9.894;2022-11-20T08:51:31;98981.38;;;1.59;53.68
25947;BME280;13745;51.470;9.894;2022-11-20T08:54:17;98978.91;;;2.21;53.34
25947;BME280;13745;51.470;9.894;2022-11-20T08:57:04;98977.56;;;2.49;52.61
25947;BME280;13745;51.470;9.894;2022-11-20T08:59:50;98983.22;;;3.19;52.30
25947;BME280;13745;51.470;9.894;2022-11-20T09:02:36;98979.00;;;3.78;51.85
25947;BME280;13745;51.470;9.894;2022-11-20T09:05:23;98977.31;;;4.47;51.96
25947;BME280;13745;51.470;9.894;2022-11-20T09:08:09;98977.63;;;4.99;52.41
25947;BME280;13745;51.470;9.894;2022-11-20T09:10:56;98980.22;;;5.48;52.29
25947;BME280;13745;51.470;9.894;2022-11-20T09:13:42;98972.53;;;6.09;51.39
25947;BME280;13745;51.470;9.894;2022-11-20T09:16:27;98978.16;;;9.26;45.98
25947;BME280;13745;51.470;9.894;2022-11-20T09:19:13;98972.38;;;11.63;42.24
25947;BME280;13745;51.470;9.894;2022-11-20T09:22:00;98976.03;;;13.85;38.15
25947;BME280;13745;51.470;9.894;2022-11-20T09:24:46;98975.97;;;12.65;40.52
25947;BME280;13745;51.470;9.894;2022-11-20T09:27:32;98974.63;;;11.62;43.18
25947;BME280;13745;51.470;9.894;2022-11-20T09:30:18;98974.50;;;11.66;43.81
25947;BME280;13745;51.470;9.894;2022-11-20T09:33:04;98972.06;;;14.28;40.65
25947;BME280;13745;51.470;9.894;2022-11-20T09:35:50;98969.19;;;19.04;33.55
25947;BME280;13745;51.470;9.894;2022-11-20T09:38:37;98958.66;;;21.48;29.92
25947;BME280;13745;51.470;9.894;2022-11-20T09:41:47;98957.38;;;22.43;28.53
25947;BME280;13745;51.470;9.894;2022-11-20T09:44:47;98955.59;;;21.24;30.19
25947;BME280;13745;51.470;9.894;2022-11-20T09:47:45;98957.19;;;21.00;30.96
25947;BME280;13745;51.470;9.894;2022-11-20T09:50:36;98952.69;;;23.73;28.10
25947;BME280;13745;51.470;9.894;2022-11-20T09:53:30;98955.28;;;26.02;26.37
25947;BME280;13745;51.470;9.894;2022-11-20T09:56:20;98955.47;;;27.31;24.17
25947;BME280;13745;51.470;9.894;2022-11-20T09:59:07;98946.34;;;28.22;23.03
25947;BME280;13745;51.470;9.894;2022-11-20T10:02:00;98943.97;;;28.73;22.41
25947;BME280;13745;51.470;9.894;2022-11-20T10:04:51;98940.56;;;29.29;21.42
25947;BME280;13745;51.470;9.894;2022-11-20T10:07:42;98935.38;;;29.50;20.98
25947;BME280;13745;51.470;9.894;2022-11-20T10:10:34;98932.44;;;29.76;20.59
25947;BME280;13745;51.470;9.894;2022-11-20T10:13:30;98936.06;;;29.92;20.21
25947;BME280;13745;51.470;9.894;2022-11-20T10:16:28;98927.38;;;29.71;20.37
25947;BME280;13745;51.470;9.894;2022-11-20T10:19:30;98933.97;;;29.81;19.93
25947;BME280;13745;51.470;9.894;2022-11-20T10:22:34;98928.56;;;29.90;20.17
25947;BME280;13745;51.470;9.894;2022-11-20T10:25:32;98933.19;;;29.80;20.37
25947;BME280;13745;51.470;9.894;2022-11-20T10:28:30;98928.09;;;29.15;20.36
25947;BME280;13745;51.470;9.894;2022-11-20T10:31:27;98921.63;;;26.50;22.52
25947;BME280;13745;51.470;9.894;2022-11-20T10:34:20;98913.31;;;24.58;24.90
25947;BME280;13745;51.470;9.894;2022-11-20T10:37:11;98914.78;;;23.83;26.14
25947;BME280;13745;51.470;9.894;2022-11-20T10:40:00;98909.50;;;23.37;26.55
25947;BME280;13745;51.470;9.894;2022-11-20T10:42:51;98910.38;;;22.82;26.83
25947;BME280;13745;51.470;9.894;2022-11-20T10:45:48;98910.16;;;22.54;26.97
25947;BME280;13745;51.470;9.894;2022-11-20T10:48:37;98915.50;;;22.34;27.32
25947;BME280;13745;51.470;9.894;2022-11-20T10:51:31;98898.41;;;21.79;27.00
25947;BME280;13745;51.470;9.894;2022-11-20T10:54:27;98907.09;;;21.84;27.04
25947;BME280;13745;51.470;9.894;2022-11-20T10:57:25;98900.31;;;23.16;25.90
25947;BME280;13745;51.470;9.894;2022-11-20T11:00:15;98902.66;;;25.85;23.70
25947;BME280;13745;51.470;9.894;2022-11-20T11:03:20;98899.06;;;28.15;21.54
25947;BME280;13745;51.470;9.894;2022-11-20T11:06:08;98893.38;;;30.11;19.54
25947;BME280;13745;51.470;9.894;2022-11-20T11:09:02;98881.63;;;31.53;18.47
25947;BME280;13745;51.470;9.894;2022-11-20T11:11:49;98885.47;;;32.73;17.10
25947;BME280;13745;51.470;9.894;2022-11-20T11:14:43;98880.97;;;33.21;16.59
25947;BME280;13745;51.470;9.894;2022-11-20T11:17:30;98884.41;;;33.79;15.96
25947;BME280;13745;51.470;9.894;2022-11-20T11:20:19;98871.69;;;34.55;15.66
25947;BME280;13745;51.470;9.894;2022-11-20T11:23:26;98870.56;;;35.18;15.02
25947;BME280;13745;51.470;9.894;2022-11-20T11:26:20;98861.00;;;35.68;14.75
25947;BME280;13745;51.470;9.894;2022-11-20T11:29:17;98850.72;;;36.15;14.17
25947;BME280;13745;51.470;9.894;2022-11-20T11:32:05;98845.94;;;35.80;14.26
25947;BME280;13745;51.470;9.894;2022-11-20T11:35:02;98835.53;;;33.34;15.42
25947;BME280;13745;51.470;9.894;2022-11-20T11:37:50;98838.44;;;30.67;17.39
25947;BME280;13745;51.470;9.894;2022-11-20T11:40:39;98836.41;;;30.56;17.84
25947;BME280;13745;51.470;9.894;2022-11-20T11:43:28;98834.03;;;30.98;17.08
25947;BME280;13745;51.470;9.894;2022-11-20T11:46:34;98831.28;;;30.66;17.52
25947;BME280;13745;51.470;9.894;2022-11-20T11:49:21;98831.53;;;32.44;16.04
25947;BME280;13745;51.470;9.894;2022-11-20T11:52:12;98828.25;;;33.25;15.35
25947;BME280;13745;51.470;9.894;2022-11-20T11:55:03;98829.31;;;33.81;14.67
25947;BME280;13745;51.470;9.894;2022-11-20T11:57:54;98836.03;;;34.14;14.63
25947;BME280;13745;51.470;9.894;2022-11-20T12:00:47;98826.28;;;34.06;14.64
25947;BME280;13745;51.470;9.894;2022-11-20T12:03:36;98819.75;;;33.79;14.99
25947;BME280;13745;51.470;9.894;2022-11-20T12:06:23;98811.75;;;33.27;15.05
25947;BME280;13745;51.470;9.894;2022-11-20T12:09:11;98821.63;;;32.52;15.64
25947;BME280;13745;51.470;9.894;2022-11-20T12:12:05;98812.19;;;31.21;15.95
25947;BME280;13745;51.470;9.894;2022-11-20T12:14:55;98812.31;;;29.61;17.08
25947;BME280;13745;51.470;9.894;2022-11-20T12:17:41;98806.88;;;28.33;17.98
25947;BME280;13745;51.470;9.894;2022-11-20T12:20:30;98798.13;;;27.27;18.30
25947;BME280;13745;51.470;9.894;2022-11-20T12:23:22;98795.19;;;26.35;18.72
25947;BME280;13745;51.470;9.894;2022-11-20T12:26:19;98797.44;;;25.47;19.38
25947;BME280;13745;51.470;9.894;2022-11-20T12:29:22;98788.66;;;24.72;19.64
25947;BME280;13745;51.470;9.894;2022-11-20T12:32:43;98788.75;;;24.13;20.06
25947;BME280;13745;51.470;9.894;2022-11-20T12:35:50;98780.41;;;23.62;20.44
25947;BME280;13745;51.470;9.894;2022-11-20T12:38:55;98770.00;;;23.14;20.74
25947;BME280;13745;51.470;9.894;2022-11-20T12:41:54;98769.00;;;22.66;21.18
25947;BME280;13745;51.470;9.894;2022-11-20T12:45:18;98760.19;;;22.33;21.49
25947;BME280;13745;51.470;9.894;2022-11-20T12:48:42;98770.13;;;21.92;21.65
25947;BME280;13745;51.470;9.894;2022-11-20T12:51:38;98772.91;;;21.53;22.03
25947;BME280;13745;51.470;9.894;2022-11-20T12:54:46;98762.16;;;21.05;22.05
25947;BME280;13745;51.470;9.894;2022-11-20T12:57:40;98767.94;;;20.64;22.47
25947;BME280;13745;51.470;9.894;2022-11-20T13:00:33;98763.78;;;19.94;22.84
25947;BME280;13745;51.470;9.894;2022-11-20T13:03:34;98764.53;;;19.47;23.01
25947;BME280;13745;51.470;9.894;2022-11-20T13:06:22;98763.91;;;19.13;23.34
25947;BME280;13745;51.470;9.894;2022-11-20T13:09:13;98750.94;;;18.73;23.59
25947;BME280;13745;51.470;9.894;2022-11-20T13:12:06;98756.94;;;18.41;23.88
25947;BME280;13745;51.470;9.894;2022-11-20T13:15:01;98749.16;;;18.09;24.16
25947;BME280;13745;51.470;9.894;2022-11-20T13:17:52;98743.69;;;18.09;24.27
25947;BME280;13745;51.470;9.894;2022-11-20T13:20:44;98756.63;;;17.94;24.35
25947;BME280;13745;51.470;9.894;2022-11-20T13:23:31;98748.38;;;17.29;24.78
25947;BME280;13745;51.470;9.894;2022-11-20T13:26:19;98750.78;;;16.62;25.40
25947;BME280;13745;51.470;9.894;2022-11-20T13:29:10;98739.28;;;15.79;26.21
25947;BME280;13745;51.470;9.894;2022-11-20T13:32:04;98730.31;;;14.88;26.63
25947;BME280;13745;51.470;9.894;2022-11-20T13:34:53;98741.91;;;14.22;27.41
25947;BME280;13745;51.470;9.894;2022-11-20T13:37:39;98731.94;;;13.57;28.03
25947;BME280;13745;51.470;9.894;2022-11-20T13:40:25;98729.94;;;12.56;28.73
25947;BME280;13745;51.470;9.894;2022-11-20T13:43:19;98734.13;;;11.70;29.76
25947;BME280;13745;51.470;9.894;2022-11-20T13:46:08;98740.25;;;10.91;31.08
25947;BME280;13745;51.470;9.894;2022-11-20T13:48:55;98743.53;;;10.50;31.52
25947;BME280;13745;51.470;9.894;2022-11-20T13:51:43;98730.91;;;10.16;32.11
25947;BME280;13745;51.470;9.894;2022-11-20T13:54:51;98734.63;;;9.72;32.61
25947;BME280;13745;51.470;9.894;2022-11-20T14:00:52;98742.22;;;9.09;33.20
25947;BME280;13745;51.470;9.894;2022-11-20T14:03:41;98743.81;;;8.83;33.62
25947;BME280;13745;51.470;9.894;2022-11-20T14:06:29;98738.00;;;8.63;33.85
25947;BME280;13745;51.470;9.894;2022-11-20T14:09:26;98728.84;;;8.33;34.75
25947;BME280;13745;51.470;9.894;2022-11-20T14:12:15;98721.31;;;7.99;34.56
25947;BME280;13745;51.470;9.894;2022-11-20T14:15:02;98723.41;;;7.70;34.81
25947;BME280;13745;51.470;9.894;2022-11-20T14:17:48;98728.44;;;7.40;35.84
25947;BME280;13745;51.470;9.894;2022-11-20T14:20:34;98728.59;;;7.08;35.90
25947;BME280;13745;51.470;9.894;2022-11-20T14:23:24;98720.25;;;6.86;36.63
25947;BME280;13745;51.470;9.894;2022-11-20T14:26:14;98720.00;;;6.60;36.90
25947;BME280;13745;51.470;9.894;2022-11-20T14:29:04;98724.41;;;6.23;37.14
25947;BME280;13745;51.470;9.894;2022-11-20T14:31:52;98712.00;;;5.99;37.49
25947;BME280;13745;51.470;9.894;2022-11-20T14:34:40;98707.63;;;5.80;37.54
25947;BME280;13745;51.470;9.894;2022-11-20T14:37:31;98714.16;;;5.64;37.82
25947;BME280;13745;51.470;9.894;2022-11-20T14:40:24;98704.41;;;5.35;38.39
25947;BME280;13745;51.470;9.894;2022-11-20T14:43:21;98700.28;;;5.15;38.94
25947;BME280;13745;51.470;9.894;2022-11-20T14:46:08;98704.41;;;4.93;38.90
25947;BME280;13745;51.470;9.894;2022-11-20T14:48:56;98698.28;;;4.83;39.28
25947;BME280;13745;51.470;9.894;2022-11-20T14:51:42;98683.81;;;4.74;39.06
25947;BME280;13745;51.470;9.894;2022-11-20T14:54:29;98682.81;;;4.60;39.39
25947;BME280;13745;51.470;9.894;2022-11-20T14:57:24;98678.56;;;4.54;40.04
25947;BME280;13745;51.470;9.894;2022-11-20T15:00:20;98688.25;;;4.41;40.03
25947;BME280;13745;51.470;9.894;2022-11-20T15:03:14;98696.84;;;4.33;40.20
25947;BME280;13745;51.470;9.894;2022-11-20T15:06:01;98689.91;;;4.27;40.37